sensor_id;sensor_type;location;lat;lon;timestamp;temperature;humidity
9987;DHT22;5033;46.310;11.214;2024-02-15T00:00:16;6.60;99.90
9987;DHT22;5033;46.310;11.214;2024-02-15T00:02:43;6.50;99.90
9987;DHT22;5033;46.310;11.214;2024-02-15T00:05:12;6.50;99.90
9987;DHT22;5033;46.310;11.214;2024-02-15T00:07:40;6.40;99.90
9987;DHT22;5033;46.310;11.214;2024-02-15T00:10:08;6.40;99.90
9987;DHT22;5033;46.310;11.214;2024-02-15T00:12:35;6.50;99.90
9987;DHT22;5033;46.310;11.214;2024-02-15T00:15:03;6.40;99.90
9987;DHT22;5033;46.310;11.214;2024-02-15T00:17:30;6.40;99.90
9987;DHT22;5033;46.310;11.214;2024-02-15T00:19:58;6.40;99.90
9987;DHT22;5033;46.310;11.214;2024-02-15T00:22:28;6.40;99.90
9987;DHT22;5033;46.310;11.214;2024-02-15T00:24:55;6.50;99.90
9987;DHT22;5033;46.310;11.214;2024-02-15T00:27:22;6.50;99.90
9987;DHT22;5033;46.310;11.214;2024-02-15T00:29:49;6.50;99.90
9987;DHT22;5033;46.310;11.214;2024-02-15T00:32:16;6.50;99.90
9987;DHT22;5033;46.310;11.214;2024-02-15T00:34:43;6.50;99.90
9987;DHT22;5033;46.310;11.214;2024-02-15T00:37:10;6.50;99.90
9987;DHT22;5033;46.310;11.214;2024-02-15T00:39:39;6.50;99.90
9987;DHT22;5033;46.310;11.214;2024-02-15T00:42:06;6.50;99.90
9987;DHT22;5033;46.310;11.214;2024-02-15T00:44:34;6.40;99.90
9987;DHT22;5033;46.310;11.214;2024-02-15T00:47:01;6.40;99.90
9987;DHT22;5033;46.310;11.214;2024-02-15T00:49:29;6.30;99.90
9987;DHT22;5033;46.310;11.214;2024-02-15T00:51:57;6.30;99.90
9987;DHT22;5033;46.310;11.214;2024-02-15T00:54:24;6.30;99.90
9987;DHT22;5033;46.310;11.214;2024-02-15T00:56:53;6.30;99.90
9987;DHT22;5033;46.310;11.214;2024-02-15T00:59:20;6.30;99.90
9987;DHT22;5033;46.310;11.214;2024-02-15T01:01:47;6.30;99.90
9987;DHT22;5033;46.310;11.214;2024-02-15T01:04:15;6.30;99.90
9987;DHT22;5033;46.310;11.214;2024-02-15T01:06:42;6.30;99.90
9987;DHT22;5033;46.310;11.214;2024-02-15T01:09:09;6.30;99.90
9987;DHT22;5033;46.310;11.214;2024-02-15T01:11:36;6.30;99.90
9987;DHT22;5033;46.310;11.214;2024-02-15T01:14:04;6.30;99.90
9987;DHT22;5033;46.310;11.214;2024-02-15T01:16:34;6.30;99.90
9987;DHT22;5033;46.310;11.214;2024-02-15T01:19:01;6.30;99.90
9987;DHT22;5033;46.310;11.214;2024-02-15T01:21:30;6.30;99.90
9987;DHT22;5033;46.310;11.214;2024-02-15T01:23:58;6.30;99.90
9987;DHT22;5033;46.310;11.214;2024-02-15T01:26:26;6.30;99.90
9987;DHT22;5033;46.310;11.214;2024-02-15T01:28:53;6.20;99.90
9987;DHT22;5033;46.310;11.214;2024-02-15T01:31:22;6.20;99.90
9987;DHT22;5033;46.310;11.214;2024-02-15T01:33:49;6.20;99.90
9987;DHT22;5033;46.310;11.214;2024-02-15T01:36:16;6.10;99.90
9987;DHT22;5033;46.310;11.214;2024-02-15T01:38:44;6.10;99.90
9987;DHT22;5033;46.310;11.214;2024-02-15T01:41:11;6.10;99.90
9987;DHT22;5033;46.310;11.214;2024-02-15T01:43:43;6.00;99.90
9987;DHT22;5033;46.310;11.214;2024-02-15T01:46:11;6.00;99.90
9987;DHT22;5033;46.310;11.214;2024-02-15T01:48:41;6.00;99.90
9987;DHT22;5033;46.310;11.214;2024-02-15T01:51:10;6.00;99.90
9987;DHT22;5033;46.310;11.214;2024-02-15T01:53:38;6.00;99.90
9987;DHT22;5033;46.310;11.214;2024-02-15T01:56:06;6.00;99.90
9987;DHT22;5033;46.310;11.214;2024-02-15T01:58:33;6.00;99.90
9987;DHT22;5033;46.310;11.214;2024-02-15T02:01:02;5.90;99.90
9987;DHT22;5033;46.310;11.214;2024-02-15T02:03:29;5.90;99.90
9987;DHT22;5033;46.310;11.214;2024-02-15T02:05:58;5.90;99.90
9987;DHT22;5033;46.310;11.214;2024-02-15T02:08:26;5.90;99.90
9987;DHT22;5033;46.310;11.214;2024-02-15T02:10:53;5.80;99.90
9987;DHT22;5033;46.310;11.214;2024-02-15T02:13:20;5.80;99.90
9987;DHT22;5033;46.310;11.214;2024-02-15T02:15:47;5.80;99.90
9987;DHT22;5033;46.310;11.214;2024-02-15T02:18:15;5.80;99.90
9987;DHT22;5033;46.310;11.214;2024-02-15T02:20:42;5.70;99.90
9987;DHT22;5033;46.310;11.214;2024-02-15T02:23:14;5.70;99.90
9987;DHT22;5033;46.310;11.214;2024-02-15T02:25:45;5.70;99.90
9987;DHT22;5033;46.310;11.214;2024-02-15T02:28:15;5.60;99.90
9987;DHT22;5033;46.310;11.214;2024-02-15T02:30:42;5.60;99.90
9987;DHT22;5033;46.310;11.214;2024-02-15T02:33:11;5.60;99.90
9987;DHT22;5033;46.310;11.214;2024-02-15T02:35:44;5.50;99.90
9987;DHT22;5033;46.310;11.214;2024-02-15T02:38:12;5.50;99.90
9987;DHT22;5033;46.310;11.214;2024-02-15T02:40:40;5.50;99.90
9987;DHT22;5033;46.310;11.214;2024-02-15T02:43:08;5.50;99.90
9987;DHT22;5033;46.310;11.214;2024-02-15T02:45:35;5.50;99.90
9987;DHT22;5033;46.310;11.214;2024-02-15T02:48:02;5.40;99.90
9987;DHT22;5033;46.310;11.214;2024-02-15T02:50:29;5.40;99.90
9987;DHT22;5033;46.310;11.214;2024-02-15T02:52:56;5.40;99.90
9987;DHT22;5033;46.310;11.214;2024-02-15T02:55:23;5.30;99.90
9987;DHT22;5033;46.310;11.214;2024-02-15T02:57:52;5.40;99.90
9987;DHT22;5033;46.310;11.214;2024-02-15T03:00:22;5.40;99.90
9987;DHT22;5033;46.310;11.214;2024-02-15T03:02:49;5.30;99.90
9987;DHT22;5033;46.310;11.214;2024-02-15T03:05:16;5.30;99.90
9987;DHT22;5033;46.310;11.214;2024-02-15T03:07:46;5.30;99.90
9987;DHT22;5033;46.310;11.214;2024-02-15T03:10:13;5.20;99.90
9987;DHT22;5033;46.310;11.214;2024-02-15T03:12:40;5.20;99.90
9987;DHT22;5033;46.310;11.214;2024-02-15T03:15:09;5.30;99.90
9987;DHT22;5033;46.310;11.214;2024-02-15T03:17:39;5.20;99.90
9987;DHT22;5033;46.310;11.214;2024-02-15T03:20:08;5.20;99.90
9987;DHT22;5033;46.310;11.214;2024-02-15T03:22:37;5.20;99.90
9987;DHT22;5033;46.310;11.214;2024-02-15T03:25:05;5.20;99.90
9987;DHT22;5033;46.310;11.214;2024-02-15T03:27:33;5.30;99.90
9987;DHT22;5033;46.310;11.214;2024-02-15T03:30:01;5.20;99.90
9987;DHT22;5033;46.310;11.214;2024-02-15T03:32:29;5.30;99.90
9987;DHT22;5033;46.310;11.214;2024-02-15T03:34:58;5.30;99.90
9987;DHT22;5033;46.310;11.214;2024-02-15T03:37:26;5.30;99.90
9987;DHT22;5033;46.310;11.214;2024-02-15T03:39:53;5.30;99.90
9987;DHT22;5033;46.310;11.214;2024-02-15T03:42:20;5.30;99.90
9987;DHT22;5033;46.310;11.214;2024-02-15T03:44:47;5.30;99.90
9987;DHT22;5033;46.310;11.214;2024-02-15T03:47:14;5.30;99.90
9987;DHT22;5033;46.310;11.214;2024-02-15T03:49:41;5.30;99.90
9987;DHT22;5033;46.310;11.214;2024-02-15T03:52:10;5.30;99.90
9987;DHT22;5033;46.310;11.214;2024-02-15T03:54:37;5.30;99.90
9987;DHT22;5033;46.310;11.214;2024-02-15T03:57:04;5.30;99.90
9987;DHT22;5033;46.310;11.214;2024-02-15T03:59:32;5.30;99.90
9987;DHT22;5033;46.310;11.214;2024-02-15T04:02:00;5.20;99.90
9987;DHT22;5033;46.310;11.214;2024-02-15T04:04:28;5.20;99.90
9987;DHT22;5033;46.310;11.214;2024-02-15T04:06:56;5.20;99.90
9987;DHT22;5033;46.310;11.214;2024-02-15T04:09:25;5.20;99.90
9987;DHT22;5033;46.310;11.214;2024-02-15T04:11:52;5.10;99.90
9987;DHT22;5033;46.310;11.214;2024-02-15T04:14:19;5.10;99.90
9987;DHT22;5033;46.310;11.214;2024-02-15T04:16:46;5.10;99.90
9987;DHT22;5033;46.310;11.214;2024-02-15T04:19:13;5.10;99.90
9987;DHT22;5033;46.310;11.214;2024-02-15T04:21:40;5.10;99.90
9987;DHT22;5033;46.310;11.214;2024-02-15T04:24:09;5.10;99.90
9987;DHT22;5033;46.310;11.214;2024-02-15T04:26:38;5.10;99.90
9987;DHT22;5033;46.310;11.214;2024-02-15T04:29:05;5.10;99.90
9987;DHT22;5033;46.310;11.214;2024-02-15T04:31:34;5.10;99.90
9987;DHT22;5033;46.310;11.214;2024-02-15T04:34:04;5.10;99.90
9987;DHT22;5033;46.310;11.214;2024-02-15T04:36:32;5.10;99.90
9987;DHT22;5033;46.310;11.214;2024-02-15T04:39:00;5.00;99.90
9987;DHT22;5033;46.310;11.214;2024-02-15T04:41:28;5.00;99.90
9987;DHT22;5033;46.310;11.214;2024-02-15T04:43:57;5.00;99.90
9987;DHT22;5033;46.310;11.214;2024-02-15T04:46:24;5.00;99.90
9987;DHT22;5033;46.310;11.214;2024-02-15T04:48:51;5.00;99.90
9987;DHT22;5033;46.310;11.214;2024-02-15T04:51:19;5.00;99.90
9987;DHT22;5033;46.310;11.214;2024-02-15T04:53:47;5.00;99.90
9987;DHT22;5033;46.310;11.214;2024-02-15T04:56:14;4.90;99.90
9987;DHT22;5033;46.310;11.214;2024-02-15T04:58:43;4.90;99.90
9987;DHT22;5033;46.310;11.214;2024-02-15T05:01:16;4.90;99.90
9987;DHT22;5033;46.310;11.214;2024-02-15T05:03:43;4.90;99.90
9987;DHT22;5033;46.310;11.214;2024-02-15T05:06:12;4.90;99.90
9987;DHT22;5033;46.310;11.214;2024-02-15T05:08:39;4.80;99.90
9987;DHT22;5033;46.310;11.214;2024-02-15T05:11:08;4.80;99.90
9987;DHT22;5033;46.310;11.214;2024-02-15T05:13:40;4.80;99.90
9987;DHT22;5033;46.310;11.214;2024-02-15T05:16:07;4.80;99.90
9987;DHT22;5033;46.310;11.214;2024-02-15T05:18:35;4.80;99.90
9987;DHT22;5033;46.310;11.214;2024-02-15T05:21:04;4.70;99.90
9987;DHT22;5033;46.310;11.214;2024-02-15T05:23:34;4.80;99.90
9987;DHT22;5033;46.310;11.214;2024-02-15T05:26:02;4.80;99.90
9987;DHT22;5033;46.310;11.214;2024-02-15T05:28:31;4.70;99.90
9987;DHT22;5033;46.310;11.214;2024-02-15T05:31:11;4.70;99.90
9987;DHT22;5033;46.310;11.214;2024-02-15T05:33:41;4.80;99.90
9987;DHT22;5033;46.310;11.214;2024-02-15T05:36:10;4.80;99.90
9987;DHT22;5033;46.310;11.214;2024-02-15T05:38:37;4.90;99.90
9987;DHT22;5033;46.310;11.214;2024-02-15T05:41:04;4.90;99.90
9987;DHT22;5033;46.310;11.214;2024-02-15T05:43:33;4.90;99.90
9987;DHT22;5033;46.310;11.214;2024-02-15T05:46:02;4.90;99.90
9987;DHT22;5033;46.310;11.214;2024-02-15T05:48:29;4.90;99.90
9987;DHT22;5033;46.310;11.214;2024-02-15T05:50:58;4.80;99.90
9987;DHT22;5033;46.310;11.214;2024-02-15T05:53:26;4.70;99.90
9987;DHT22;5033;46.310;11.214;2024-02-15T05:55:54;4.70;99.90
9987;DHT22;5033;46.310;11.214;2024-02-15T05:58:23;4.70;99.90
9987;DHT22;5033;46.310;11.214;2024-02-15T06:00:50;4.70;99.90
9987;DHT22;5033;46.310;11.214;2024-02-15T06:03:18;4.70;99.90
9987;DHT22;5033;46.310;11.214;2024-02-15T06:05:47;4.80;99.90
9987;DHT22;5033;46.310;11.214;2024-02-15T06:08:16;4.80;99.90
9987;DHT22;5033;46.310;11.214;2024-02-15T06:10:43;4.90;99.90
9987;DHT22;5033;46.310;11.214;2024-02-15T06:13:12;4.80;99.90
9987;DHT22;5033;46.310;11.214;2024-02-15T06:15:40;4.80;99.90
9987;DHT22;5033;46.310;11.214;2024-02-15T06:18:07;4.80;99.90
9987;DHT22;5033;46.310;11.214;2024-02-15T06:20:36;4.80;99.90
9987;DHT22;5033;46.310;11.214;2024-02-15T06:23:04;4.80;99.90
9987;DHT22;5033;46.310;11.214;2024-02-15T06:25:35;4.70;99.90
9987;DHT22;5033;46.310;11.214;2024-02-15T06:28:02;4.70;99.90
9987;DHT22;5033;46.310;11.214;2024-02-15T06:30:39;4.80;99.90
9987;DHT22;5033;46.310;11.214;2024-02-15T06:33:23;4.80;99.90
9987;DHT22;5033;46.310;11.214;2024-02-15T06:36:07;4.90;99.90
9987;DHT22;5033;46.310;11.214;2024-02-15T06:38:52;4.90;99.90
9987;DHT22;5033;46.310;11.214;2024-02-15T06:41:37;5.00;99.90
9987;DHT22;5033;46.310;11.214;2024-02-15T06:44:04;5.00;99.90
9987;DHT22;5033;46.310;11.214;2024-02-15T06:46:31;5.10;99.90
9987;DHT22;5033;46.310;11.214;2024-02-15T06:48:59;5.20;99.90
9987;DHT22;5033;46.310;11.214;2024-02-15T06:51:25;5.20;99.90
9987;DHT22;5033;46.310;11.214;2024-02-15T06:53:53;5.20;99.90
9987;DHT22;5033;46.310;11.214;2024-02-15T06:56:21;5.20;99.90
9987;DHT22;5033;46.310;11.214;2024-02-15T06:58:51;5.20;99.90
9987;DHT22;5033;46.310;11.214;2024-02-15T07:01:19;5.20;99.90
9987;DHT22;5033;46.310;11.214;2024-02-15T07:03:46;5.20;99.90
9987;DHT22;5033;46.310;11.214;2024-02-15T07:06:14;5.30;99.90
9987;DHT22;5033;46.310;11.214;2024-02-15T07:08:42;5.30;99.90
9987;DHT22;5033;46.310;11.214;2024-02-15T07:11:10;5.40;99.90
9987;DHT22;5033;46.310;11.214;2024-02-15T07:13:37;5.40;99.90
9987;DHT22;5033;46.310;11.214;2024-02-15T07:16:08;5.40;99.90
9987;DHT22;5033;46.310;11.214;2024-02-15T07:18:35;5.50;99.90
9987;DHT22;5033;46.310;11.214;2024-02-15T07:21:02;5.50;99.90
9987;DHT22;5033;46.310;11.214;2024-02-15T07:23:34;5.60;99.90
9987;DHT22;5033;46.310;11.214;2024-02-15T07:26:01;5.60;99.90
9987;DHT22;5033;46.310;11.214;2024-02-15T07:28:29;5.60;99.90
9987;DHT22;5033;46.310;11.214;2024-02-15T07:30:56;5.70;99.90
9987;DHT22;5033;46.310;11.214;2024-02-15T07:33:24;5.90;99.90
9987;DHT22;5033;46.310;11.214;2024-02-15T07:35:51;6.60;99.90
9987;DHT22;5033;46.310;11.214;2024-02-15T07:38:19;7.30;99.90
9987;DHT22;5033;46.310;11.214;2024-02-15T07:40:48;8.00;99.90
9987;DHT22;5033;46.310;11.214;2024-02-15T07:43:15;8.60;99.90
9987;DHT22;5033;46.310;11.214;2024-02-15T07:45:42;9.20;99.90
9987;DHT22;5033;46.310;11.214;2024-02-15T07:48:10;9.90;99.90
9987;DHT22;5033;46.310;11.214;2024-02-15T07:50:38;10.30;99.90
9987;DHT22;5033;46.310;11.214;2024-02-15T07:53:06;10.70;99.90
9987;DHT22;5033;46.310;11.214;2024-02-15T07:55:34;11.20;99.90
9987;DHT22;5033;46.310;11.214;2024-02-15T07:58:01;11.40;99.90
9987;DHT22;5033;46.310;11.214;2024-02-15T08:00:27;11.70;99.90
9987;DHT22;5033;46.310;11.214;2024-02-15T08:02:56;11.60;99.90
9987;DHT22;5033;46.310;11.214;2024-02-15T08:05:24;11.70;99.90
9987;DHT22;5033;46.310;11.214;2024-02-15T08:07:53;11.80;99.90
9987;DHT22;5033;46.310;11.214;2024-02-15T08:10:23;11.90;99.90
9987;DHT22;5033;46.310;11.214;2024-02-15T08:12:51;12.10;99.90
9987;DHT22;5033;46.310;11.214;2024-02-15T08:15:19;11.90;99.90
9987;DHT22;5033;46.310;11.214;2024-02-15T08:17:46;12.00;99.90
9987;DHT22;5033;46.310;11.214;2024-02-15T08:20:15;12.00;99.90
9987;DHT22;5033;46.310;11.214;2024-02-15T08:22:47;12.30;99.90
9987;DHT22;5033;46.310;11.214;2024-02-15T08:25:15;12.40;99.90
9987;DHT22;5033;46.310;11.214;2024-02-15T08:27:46;12.60;99.90
9987;DHT22;5033;46.310;11.214;2024-02-15T08:30:16;12.80;99.90
9987;DHT22;5033;46.310;11.214;2024-02-15T08:32:43;13.00;99.90
9987;DHT22;5033;46.310;11.214;2024-02-15T08:35:12;13.60;99.90
9987;DHT22;5033;46.310;11.214;2024-02-15T08:37:39;13.80;99.90
9987;DHT22;5033;46.310;11.214;2024-02-15T08:40:09;13.60;99.90
9987;DHT22;5033;46.310;11.214;2024-02-15T08:42:42;13.80;99.90
9987;DHT22;5033;46.310;11.214;2024-02-15T08:45:10;14.10;99.90
9987;DHT22;5033;46.310;11.214;2024-02-15T08:47:38;14.20;99.90
9987;DHT22;5033;46.310;11.214;2024-02-15T08:50:06;14.20;99.90
9987;DHT22;5033;46.310;11.214;2024-02-15T08:52:34;13.90;99.90
9987;DHT22;5033;46.310;11.214;2024-02-15T08:55:04;13.50;99.90
9987;DHT22;5033;46.310;11.214;2024-02-15T08:57:33;13.10;99.90
9987;DHT22;5033;46.310;11.214;2024-02-15T09:00:03;12.90;99.90
9987;DHT22;5033;46.310;11.214;2024-02-15T09:02:31;13.10;99.90
9987;DHT22;5033;46.310;11.214;2024-02-15T09:04:59;13.40;99.90
9987;DHT22;5033;46.310;11.214;2024-02-15T09:07:26;13.60;99.90
9987;DHT22;5033;46.310;11.214;2024-02-15T09:09:53;14.00;99.90
9987;DHT22;5033;46.310;11.214;2024-02-15T09:12:20;14.30;99.90
9987;DHT22;5033;46.310;11.214;2024-02-15T09:14:48;14.50;99.90
9987;DHT22;5033;46.310;11.214;2024-02-15T09:17:16;14.80;99.90
9987;DHT22;5033;46.310;11.214;2024-02-15T09:19:43;15.00;99.90
9987;DHT22;5033;46.310;11.214;2024-02-15T09:22:14;15.20;99.90
9987;DHT22;5033;46.310;11.214;2024-02-15T09:24:41;15.10;99.90
9987;DHT22;5033;46.310;11.214;2024-02-15T09:27:09;14.90;99.90
9987;DHT22;5033;46.310;11.214;2024-02-15T09:29:37;14.90;99.90
9987;DHT22;5033;46.310;11.214;2024-02-15T09:32:06;15.00;99.90
9987;DHT22;5033;46.310;11.214;2024-02-15T09:34:34;15.30;99.90
9987;DHT22;5033;46.310;11.214;2024-02-15T09:37:01;15.40;99.90
9987;DHT22;5033;46.310;11.214;2024-02-15T09:39:30;15.30;99.90
9987;DHT22;5033;46.310;11.214;2024-02-15T09:41:57;14.90;99.90
9987;DHT22;5033;46.310;11.214;2024-02-15T09:44:25;14.80;99.90
9987;DHT22;5033;46.310;11.214;2024-02-15T09:47:01;15.00;99.90
9987;DHT22;5033;46.310;11.214;2024-02-15T09:49:29;15.30;99.90
9987;DHT22;5033;46.310;11.214;2024-02-15T09:51:58;15.40;99.90
9987;DHT22;5033;46.310;11.214;2024-02-15T09:54:26;15.60;99.90
9987;DHT22;5033;46.310;11.214;2024-02-15T09:56:53;15.90;99.90
9987;DHT22;5033;46.310;11.214;2024-02-15T09:59:21;16.00;99.90
9987;DHT22;5033;46.310;11.214;2024-02-15T10:01:48;16.40;99.90
9987;DHT22;5033;46.310;11.214;2024-02-15T10:04:16;16.70;99.90
9987;DHT22;5033;46.310;11.214;2024-02-15T10:06:43;16.80;99.90
9987;DHT22;5033;46.310;11.214;2024-02-15T10:09:27;16.90;99.90
9987;DHT22;5033;46.310;11.214;2024-02-15T10:11:55;16.90;99.90
9987;DHT22;5033;46.310;11.214;2024-02-15T10:14:23;17.10;99.90
9987;DHT22;5033;46.310;11.214;2024-02-15T10:16:51;17.00;99.90
9987;DHT22;5033;46.310;11.214;2024-02-15T10:19:19;17.10;99.90
9987;DHT22;5033;46.310;11.214;2024-02-15T10:21:51;16.90;99.90
9987;DHT22;5033;46.310;11.214;2024-02-15T10:24:19;16.60;99.90
9987;DHT22;5033;46.310;11.214;2024-02-15T10:26:48;16.80;99.90
9987;DHT22;5033;46.310;11.214;2024-02-15T10:29:15;16.80;99.90
9987;DHT22;5033;46.310;11.214;2024-02-15T10:31:52;16.90;99.90
9987;DHT22;5033;46.310;11.214;2024-02-15T10:34:20;16.60;99.90
9987;DHT22;5033;46.310;11.214;2024-02-15T10:36:47;16.50;99.90
9987;DHT22;5033;46.310;11.214;2024-02-15T10:39:16;16.50;99.90
9987;DHT22;5033;46.310;11.214;2024-02-15T10:41:53;16.70;99.90
9987;DHT22;5033;46.310;11.214;2024-02-15T10:44:22;16.90;99.90
9987;DHT22;5033;46.310;11.214;2024-02-15T10:46:50;16.80;99.90
9987;DHT22;5033;46.310;11.214;2024-02-15T10:49:18;17.10;99.90
9987;DHT22;5033;46.310;11.214;2024-02-15T10:51:51;17.30;99.90
9987;DHT22;5033;46.310;11.214;2024-02-15T10:54:31;17.10;99.90
9987;DHT22;5033;46.310;11.214;2024-02-15T10:57:04;17.00;99.90
9987;DHT22;5033;46.310;11.214;2024-02-15T10:59:34;16.70;99.90
9987;DHT22;5033;46.310;11.214;2024-02-15T11:02:18;16.50;99.90
9987;DHT22;5033;46.310;11.214;2024-02-15T11:04:52;16.30;99.90
9987;DHT22;5033;46.310;11.214;2024-02-15T11:07:23;16.30;99.90
9987;DHT22;5033;46.310;11.214;2024-02-15T11:09:52;16.50;99.90
9987;DHT22;5033;46.310;11.214;2024-02-15T11:12:20;16.70;99.90
9987;DHT22;5033;46.310;11.214;2024-02-15T11:14:49;16.70;99.90
9987;DHT22;5033;46.310;11.214;2024-02-15T11:17:45;16.50;99.90
9987;DHT22;5033;46.310;11.214;2024-02-15T11:20:48;16.40;99.90
9987;DHT22;5033;46.310;11.214;2024-02-15T11:23:26;16.40;99.90
9987;DHT22;5033;46.310;11.214;2024-02-15T11:25:54;16.50;99.90
9987;DHT22;5033;46.310;11.214;2024-02-15T11:28:43;16.50;99.90
9987;DHT22;5033;46.310;11.214;2024-02-15T11:31:52;16.30;99.90
9987;DHT22;5033;46.310;11.214;2024-02-15T11:34:42;16.10;99.90
9987;DHT22;5033;46.310;11.214;2024-02-15T11:40:19;16.70;99.90
9987;DHT22;5033;46.310;11.214;2024-02-15T11:42:48;16.80;99.90
9987;DHT22;5033;46.310;11.214;2024-02-15T11:45:17;16.70;99.90
9987;DHT22;5033;46.310;11.214;2024-02-15T11:47:50;16.70;99.90
9987;DHT22;5033;46.310;11.214;2024-02-15T11:50:18;16.50;99.90
9987;DHT22;5033;46.310;11.214;2024-02-15T11:52:47;16.50;99.90
9987;DHT22;5033;46.310;11.214;2024-02-15T11:55:17;16.50;99.90
9987;DHT22;5033;46.310;11.214;2024-02-15T11:57:54;16.50;99.90
9987;DHT22;5033;46.310;11.214;2024-02-15T12:00:30;16.70;99.90
9987;DHT22;5033;46.310;11.214;2024-02-15T12:03:15;17.00;99.90
9987;DHT22;5033;46.310;11.214;2024-02-15T12:06:00;17.10;99.90
9987;DHT22;5033;46.310;11.214;2024-02-15T12:08:45;17.10;99.90
9987;DHT22;5033;46.310;11.214;2024-02-15T12:11:31;16.90;99.90
9987;DHT22;5033;46.310;11.214;2024-02-15T12:14:15;16.90;99.90
9987;DHT22;5033;46.310;11.214;2024-02-15T12:17:03;16.70;99.90
9987;DHT22;5033;46.310;11.214;2024-02-15T12:19:49;16.40;99.90
9987;DHT22;5033;46.310;11.214;2024-02-15T12:22:18;16.60;99.90
9987;DHT22;5033;46.310;11.214;2024-02-15T12:24:57;16.70;99.90
9987;DHT22;5033;46.310;11.214;2024-02-15T12:27:24;16.60;99.90
9987;DHT22;5033;46.310;11.214;2024-02-15T12:29:56;16.50;99.90
9987;DHT22;5033;46.310;11.214;2024-02-15T12:32:26;16.40;99.90
9987;DHT22;5033;46.310;11.214;2024-02-15T12:34:53;16.30;99.90
9987;DHT22;5033;46.310;11.214;2024-02-15T12:37:35;16.50;99.90
9987;DHT22;5033;46.310;11.214;2024-02-15T12:40:10;16.60;99.90
9987;DHT22;5033;46.310;11.214;2024-02-15T12:42:41;16.40;99.90
9987;DHT22;5033;46.310;11.214;2024-02-15T12:45:15;16.40;99.90
9987;DHT22;5033;46.310;11.214;2024-02-15T12:47:47;16.40;99.90
9987;DHT22;5033;46.310;11.214;2024-02-15T12:50:16;16.60;99.90
9987;DHT22;5033;46.310;11.214;2024-02-15T12:52:45;16.80;99.90
9987;DHT22;5033;46.310;11.214;2024-02-15T12:55:14;16.70;99.90
9987;DHT22;5033;46.310;11.214;2024-02-15T12:57:42;16.50;99.90
9987;DHT22;5033;46.310;11.214;2024-02-15T13:00:12;16.50;99.90
9987;DHT22;5033;46.310;11.214;2024-02-15T13:02:44;16.50;99.90
9987;DHT22;5033;46.310;11.214;2024-02-15T13:05:13;16.70;99.90
9987;DHT22;5033;46.310;11.214;2024-02-15T13:07:40;16.70;99.90
9987;DHT22;5033;46.310;11.214;2024-02-15T13:10:08;16.70;99.90
9987;DHT22;5033;46.310;11.214;2024-02-15T13:12:36;16.70;99.90
9987;DHT22;5033;46.310;11.214;2024-02-15T13:15:04;17.00;99.90
9987;DHT22;5033;46.310;11.214;2024-02-15T13:17:33;17.20;99.90
9987;DHT22;5033;46.310;11.214;2024-02-15T13:20:00;17.10;99.90
9987;DHT22;5033;46.310;11.214;2024-02-15T13:22:33;16.90;99.90
9987;DHT22;5033;46.310;11.214;2024-02-15T13:25:01;17.00;99.90
9987;DHT22;5033;46.310;11.214;2024-02-15T13:27:30;16.80;99.90
9987;DHT22;5033;46.310;11.214;2024-02-15T13:29:57;16.60;99.90
9987;DHT22;5033;46.310;11.214;2024-02-15T13:32:24;16.60;99.90
9987;DHT22;5033;46.310;11.214;2024-02-15T13:34:51;16.60;99.90
9987;DHT22;5033;46.310;11.214;2024-02-15T13:37:21;16.50;99.90
9987;DHT22;5033;46.310;11.214;2024-02-15T13:39:51;16.50;99.90
9987;DHT22;5033;46.310;11.214;2024-02-15T13:42:18;16.60;99.90
9987;DHT22;5033;46.310;11.214;2024-02-15T13:44:45;16.60;99.90
9987;DHT22;5033;46.310;11.214;2024-02-15T13:47:14;16.70;99.90
9987;DHT22;5033;46.310;11.214;2024-02-15T13:49:42;16.60;99.90
9987;DHT22;5033;46.310;11.214;2024-02-15T13:52:09;16.50;99.90
9987;DHT22;5033;46.310;11.214;2024-02-15T13:54:36;16.30;99.90
9987;DHT22;5033;46.310;11.214;2024-02-15T13:57:05;16.10;99.90
9987;DHT22;5033;46.310;11.214;2024-02-15T13:59:33;15.90;99.90
9987;DHT22;5033;46.310;11.214;2024-02-15T14:02:00;15.90;99.90
9987;DHT22;5033;46.310;11.214;2024-02-15T14:04:29;15.80;99.90
9987;DHT22;5033;46.310;11.214;2024-02-15T14:06:58;15.90;99.90
9987;DHT22;5033;46.310;11.214;2024-02-15T14:09:27;15.90;99.90
9987;DHT22;5033;46.310;11.214;2024-02-15T14:11:55;15.80;99.90
9987;DHT22;5033;46.310;11.214;2024-02-15T14:14:25;16.00;99.90
9987;DHT22;5033;46.310;11.214;2024-02-15T14:16:51;16.10;99.90
9987;DHT22;5033;46.310;11.214;2024-02-15T14:19:18;16.10;99.90
9987;DHT22;5033;46.310;11.214;2024-02-15T14:21:46;16.10;99.90
9987;DHT22;5033;46.310;11.214;2024-02-15T14:24:13;16.10;99.90
9987;DHT22;5033;46.310;11.214;2024-02-15T14:26:41;16.10;99.90
9987;DHT22;5033;46.310;11.214;2024-02-15T14:29:08;16.10;99.90
9987;DHT22;5033;46.310;11.214;2024-02-15T14:31:36;16.10;99.90
9987;DHT22;5033;46.310;11.214;2024-02-15T14:34:21;16.00;99.90
9987;DHT22;5033;46.310;11.214;2024-02-15T14:36:50;15.90;99.90
9987;DHT22;5033;46.310;11.214;2024-02-15T14:39:17;15.80;99.90
9987;DHT22;5033;46.310;11.214;2024-02-15T14:41:45;15.80;99.90
9987;DHT22;5033;46.310;11.214;2024-02-15T14:44:12;16.00;99.90
9987;DHT22;5033;46.310;11.214;2024-02-15T14:46:41;16.10;99.90
9987;DHT22;5033;46.310;11.214;2024-02-15T14:49:08;16.10;99.90
9987;DHT22;5033;46.310;11.214;2024-02-15T14:51:35;16.10;99.90
9987;DHT22;5033;46.310;11.214;2024-02-15T14:54:04;16.10;99.90
9987;DHT22;5033;46.310;11.214;2024-02-15T14:56:33;16.10;99.90
9987;DHT22;5033;46.310;11.214;2024-02-15T14:59:01;16.00;99.90
9987;DHT22;5033;46.310;11.214;2024-02-15T15:01:28;15.80;99.90
9987;DHT22;5033;46.310;11.214;2024-02-15T15:03:57;15.60;99.90
9987;DHT22;5033;46.310;11.214;2024-02-15T15:06:29;15.50;99.90
9987;DHT22;5033;46.310;11.214;2024-02-15T15:09:16;15.40;99.90
9987;DHT22;5033;46.310;11.214;2024-02-15T15:12:01;15.30;99.90
9987;DHT22;5033;46.310;11.214;2024-02-15T15:14:45;15.10;99.90
9987;DHT22;5033;46.310;11.214;2024-02-15T15:17:13;15.00;99.90
9987;DHT22;5033;46.310;11.214;2024-02-15T15:19:43;14.90;99.90
9987;DHT22;5033;46.310;11.214;2024-02-15T15:22:10;14.80;99.90
9987;DHT22;5033;46.310;11.214;2024-02-15T15:24:37;14.70;99.90
9987;DHT22;5033;46.310;11.214;2024-02-15T15:27:04;14.60;99.90
9987;DHT22;5033;46.310;11.214;2024-02-15T15:29:32;14.40;99.90
9987;DHT22;5033;46.310;11.214;2024-02-15T15:31:59;14.40;99.90
9987;DHT22;5033;46.310;11.214;2024-02-15T15:34:26;14.40;99.90
9987;DHT22;5033;46.310;11.214;2024-02-15T15:36:54;14.30;99.90
9987;DHT22;5033;46.310;11.214;2024-02-15T15:39:22;14.30;99.90
9987;DHT22;5033;46.310;11.214;2024-02-15T15:41:52;14.30;99.90
9987;DHT22;5033;46.310;11.214;2024-02-15T15:44:20;14.20;99.90
9987;DHT22;5033;46.310;11.214;2024-02-15T15:46:50;14.20;99.90
9987;DHT22;5033;46.310;11.214;2024-02-15T15:49:20;14.10;99.90
9987;DHT22;5033;46.310;11.214;2024-02-15T15:51:47;14.10;99.90
9987;DHT22;5033;46.310;11.214;2024-02-15T15:54:16;14.00;99.90
9987;DHT22;5033;46.310;11.214;2024-02-15T15:56:45;13.90;99.90
9987;DHT22;5033;46.310;11.214;2024-02-15T15:59:12;13.80;99.90
9987;DHT22;5033;46.310;11.214;2024-02-15T16:01:39;13.70;99.90
9987;DHT22;5033;46.310;11.214;2024-02-15T16:04:06;13.60;99.90
9987;DHT22;5033;46.310;11.214;2024-02-15T16:06:33;13.60;99.90
9987;DHT22;5033;46.310;11.214;2024-02-15T16:09:00;13.50;99.90
9987;DHT22;5033;46.310;11.214;2024-02-15T16:11:30;13.40;99.90